• Join FlightAware (Why Join?)
  • Login
  • US Flag 
04:14AM EDT


 

Airport Tracker/Info


-or-


 

Live Flight TrackerFlight Track Log ✈ SKQ45 ✈ 18-Apr-2013 ✈ KPAH - KSTL

Flight Track Log - Related Links

Times and Time Zones

All times are in EDT time to prevent confusion due to time zone crossing. See the SKQ45 flight status page for this flight to view local times or setup timezone preferences in your user account.

Time Position Orientation Groundspeed Altitude Reporting Facility
EDT Latitude Longitude Course Direction KTS MPH feet Rate Location/Type
11:12PM 37.1183 -88.8247 332° Northwest 236 272 3,000  Level Memphis Center
11:13PM 37.1542 -88.8606 321° Northwest 194 223 3,900 960 Climbing Memphis Center
11:14PM 37.1942 -88.8961 325° Northwest 179 206 5,000 900 Climbing Memphis Center
11:15PM 37.2361 -88.9369 322° Northwest 184 212 5,800 780 Climbing Memphis Center
11:17PM 37.3339 -89.0203 326° Northwest 192 221 7,700 720 Climbing Kansas City Center
11:18PM 37.3792 -89.0628 323° Northwest 197 227 8,200 600 Climbing Kansas City Center
11:19PM 37.4264 -89.1081 323° Northwest 205 236 9,000 720 Climbing Kansas City Center
11:20PM 37.4836 -89.1622 323° Northwest 211 243 9,800 420 Climbing Kansas City Center
11:21PM 37.5350 -89.2094 324° Northwest 218 251 9,900  Climbing Kansas City Center
11:22PM 37.5872 -89.2578 324° Northwest 225 259 9,900  Level Kansas City Center
11:23PM 37.6408 -89.3083 323° Northwest 233 268 9,900  Level Kansas City Center
11:24PM 37.6928 -89.3583 323° Northwest 235 270 9,900  Level Kansas City Center
11:25PM 37.7456 -89.4089 323° Northwest 237 273 9,900  Level Kansas City Center
11:26PM 37.7978 -89.4578 324° Northwest 237 273 9,900  Level Kansas City Center
11:28PM 37.8594 -89.5150 324° Northwest 235 270 9,900  Level Kansas City Center
11:29PM 37.9117 -89.5661 322° Northwest 236 272 9,900  Level Kansas City Center
11:30PM 37.9650 -89.6158 324° Northwest 238 274 9,900  Level Kansas City Center
11:31PM 38.0217 -89.6697 323° Northwest 251 289 9,900  Level Kansas City Center
11:31PM 38.0486 -89.6372 44° Northeast 250 288 9,900  Level FAA TRACON SMA TRACON (SMA)
11:31PM 38.0650 -89.6539 321° Northwest 250 288 9,900  Level FAA TRACON SMA TRACON (SMA)
11:32PM 38.0819 -89.6706 322° Northwest 249 287 9,900  Level FAA TRACON SMA TRACON (SMA)
11:32PM 38.0997 -89.6864 325° Northwest 251 289 9,900  Level FAA TRACON SMA TRACON (SMA)
11:32PM 38.1206 -89.7075 321° Northwest 249 287 9,900  Level FAA TRACON SMA TRACON (SMA)
11:33PM 38.1372 -89.7247 321° Northwest 251 289 9,900  Level FAA TRACON SMA TRACON (SMA)
11:33PM 38.1539 -89.7414 322° Northwest 251 289 9,900  Level FAA TRACON SMA TRACON (SMA)
11:33PM 38.1758 -89.7617 324° Northwest 252 290 9,900  Level FAA TRACON SMA TRACON (SMA)
11:34PM 38.1931 -89.7778 324° Northwest 251 289 9,900  Level FAA TRACON SMA TRACON (SMA)
11:34PM 38.2108 -89.7939 325° Northwest 251 289 9,900  Level FAA TRACON SMA TRACON (SMA)
11:34PM 38.2317 -89.8153 321° Northwest 250 288 9,900  Level FAA TRACON SMA TRACON (SMA)
11:35PM 38.2511 -89.8289 331° Northwest 256 295 9,900 -480 Level FAA TRACON SMA TRACON (SMA)
11:35PM 38.2733 -89.8392 340° North 268 308 9,600 -1,080 Descending FAA TRACON SMA TRACON (SMA)
11:35PM 38.3014 -89.8514 341° North 278 320 9,200 -1,260 Descending FAA TRACON SMA TRACON (SMA)
11:36PM 38.3247 -89.8608 342° North 283 326 8,800 -1,260 Descending FAA TRACON SMA TRACON (SMA)
11:36PM 38.3472 -89.8708 341° North 282 325 8,400 -1,200 Descending FAA TRACON SMA TRACON (SMA)
11:36PM 38.3736 -89.8842 338° Northwest 271 312 8,000 -1,080 Descending FAA TRACON SMA TRACON (SMA)
11:37PM 38.3942 -89.8947 338° Northwest 263 303 7,700 -1,080 Descending FAA TRACON SMA TRACON (SMA)
11:37PM 38.4139 -89.9056 337° Northwest 257 296 7,300 -1,320 Descending FAA TRACON SMA TRACON (SMA)
11:37PM 38.4394 -89.9178 339° North 254 292 6,800 -1,380 Descending FAA TRACON SMA TRACON (SMA)
11:38PM 38.4594 -89.9281 338° Northwest 252 290 6,400 -1,260 Descending FAA TRACON SMA TRACON (SMA)
11:38PM 38.4792 -89.9383 338° Northwest 250 288 6,000 -1,260 Descending FAA TRACON SMA TRACON (SMA)
11:38PM 38.5033 -89.9503 339° North 245 282 5,500 -1,260 Descending FAA TRACON SMA TRACON (SMA)
11:39PM 38.5267 -89.9625 338° Northwest 237 273 5,100 -1,140 Descending FAA TRACON SMA TRACON (SMA)
11:39PM 38.5406 -89.9689 340° North 233 268 4,800 -1,380 Descending FAA TRACON SMA TRACON (SMA)
11:39PM 38.5631 -89.9800 339° North 227 261 4,300 -1,380 Descending FAA TRACON SMA TRACON (SMA)
11:40PM 38.5800 -89.9886 338° Northwest 219 252 3,900 -1,080 Descending FAA TRACON SMA TRACON (SMA)
11:40PM 38.5939 -90.0000 327° Northwest 207 238 3,600 -1,260 Descending FAA TRACON SMA TRACON (SMA)
11:40PM 38.6028 -90.0228 297° West 190 219 3,100 -1,080 Descending FAA TRACON SMA TRACON (SMA)
11:41PM 38.6119 -90.0397 305° West 187 215 2,900 -300 Descending FAA TRACON SMA TRACON (SMA)
11:41PM 38.6200 -90.0564 302° West 182 209 2,900  Level FAA TRACON SMA TRACON (SMA)
11:41PM 38.6283 -90.0717 305° West 173 199 2,900  Level FAA TRACON SMA TRACON (SMA)
11:42PM 38.6375 -90.0908 301° West 166 191 2,900  Level FAA TRACON SMA TRACON (SMA)
11:42PM 38.6453 -90.1058 304° West 162 186 2,900  Level FAA TRACON SMA TRACON (SMA)
11:42PM 38.6525 -90.1206 302° West 160 184 2,900  Level FAA TRACON SMA TRACON (SMA)
11:43PM 38.6611 -90.1386 301° West 157 181 2,900  Level FAA TRACON SMA TRACON (SMA)
11:43PM 38.6689 -90.1531 305° West 157 181 2,900 -300 Level FAA TRACON SMA TRACON (SMA)
11:43PM 38.6781 -90.1706 304° West 157 181 2,700 -660 Descending FAA TRACON SMA TRACON (SMA)
11:44PM 38.6825 -90.1808 299° West 149 171 2,500 -780 Descending FAA TRACON SMA TRACON (SMA)
11:44PM 38.6892 -90.1939 303° West 120 138 2,200 -600 Descending FAA TRACON SMA TRACON (SMA)
11:44PM 38.6942 -90.2050 300° West 94 108 2,100 -480 Descending FAA TRACON SMA TRACON (SMA)
11:45PM 38.6992 -90.2144 304° West 99 114 1,900 -600 Descending FAA TRACON SMA TRACON (SMA)
11:45PM 38.7042 -90.2242 303° West 104 120 1,700 -600 Descending FAA TRACON SMA TRACON (SMA)
11:45PM 38.7094 -90.2350 302° West 96 110 1,500 -480 Descending FAA TRACON SMA TRACON (SMA)
11:46PM 38.7131 -90.2431 300° West 89 102 1,400 -480 Descending FAA TRACON SMA TRACON (SMA)
11:46PM 38.7178 -90.2522 303° West 94 108 1,200 -480 Descending FAA TRACON SMA TRACON (SMA)
11:46PM 38.7231 -90.2625 303° West 92 106 1,100 -480 Descending FAA TRACON SMA TRACON (SMA)
11:47PM 38.7278 -90.2717 303° West 95 109 900 -660 Descending FAA TRACON SMA TRACON (SMA)
11:47PM 38.7317 -90.2800 301° West 94 108 700 -600 Descending FAA TRACON SMA TRACON (SMA)
11:50PM 38.7333 -90.3667 345° North  Level FlightAware Approximate